Time;durP1;ratioP1;P1;durP2;ratioP2;P2;SDS_P1;SDS_P2;PMS_P1;PMS_P2;Temp;Humidity;BMP_temperature;BMP_pressure;BME280_temperature;BME280_humidity;BME280_pressure;Samples;Min_cycle;Max_cycle;Signal;HPM_P1;HPM_P2
2022/05/31 00:01:29;;;;;;;1.80;1.70;;;9.30;96.00;;;;;;4938209;29;20230;-89
2022/05/31 00:03:57;;;;;;;1.92;1.70;;;9.20;96.00;;;;;;4945462;29;20266;-89
2022/05/31 00:06:35;;;;;;;4.18;2.08;;;9.20;96.00;;;;;;4936215;29;20246;-90
2022/05/31 00:09:11;;;;;;;2.25;2.05;;;9.40;96.60;;;;;;4952470;29;20216;-89
2022/05/31 00:11:41;;;;;;;2.08;1.90;;;9.40;96.00;;;;;;4940855;29;20261;-89
2022/05/31 00:14:19;;;;;;;2.28;2.05;;;9.40;96.00;;;;;;4948686;29;20252;-89
2022/05/31 00:16:47;;;;;;;2.15;1.90;;;9.30;96.00;;;;;;4935057;29;20292;-89
2022/05/31 00:19:17;;;;;;;2.35;2.15;;;9.30;96.00;;;;;;4945680;29;20198;-89
2022/05/31 00:21:59;;;;;;;2.28;2.08;;;9.20;95.90;;;;;;4946787;29;20230;-90
2022/05/31 00:24:26;;;;;;;2.10;1.90;;;9.10;95.90;;;;;;4939709;29;20229;-89
2022/05/31 00:26:53;;;;;;;2.25;2.00;;;9.10;95.90;;;;;;4943084;29;20205;-89
2022/05/31 00:29:52;;;;;;;2.08;1.98;;;9.10;96.60;;;;;;4945709;29;20208;-89
2022/05/31 00:32:48;;;;;;;2.92;2.15;;;9.20;96.30;;;;;;4945915;29;20283;-89
2022/05/31 00:35:20;;;;;;;2.60;2.00;;;9.20;96.00;;;;;;4951074;29;20373;-90
2022/05/31 00:38:00;;;;;;;2.10;1.90;;;9.20;95.90;;;;;;4943201;29;20221;-89
2022/05/31 00:40:42;;;;;;;4.47;2.20;;;9.20;95.90;;;;;;4943480;29;20228;-89
2022/05/31 00:43:34;;;;;;;2.20;1.98;;;9.20;95.90;;;;;;4944465;29;20206;-89
2022/05/31 00:46:11;;;;;;;2.33;2.13;;;9.10;95.90;;;;;;4947219;29;20242;-90
2022/05/31 00:48:44;;;;;;;2.17;1.98;;;9.10;95.90;;;;;;4960903;28;20239;-89
2022/05/31 00:57:37;;;;;;;2.10;1.90;;;9.10;95.90;;;;;;4949101;29;20209;-90
2022/05/31 01:00:18;;;;;;;1.83;1.73;;;9.00;95.90;;;;;;4942894;29;20202;-89
2022/05/31 01:06:10;;;;;;;1.60;1.50;;;8.90;95.90;;;;;;4948544;29;20205;-89
2022/05/31 01:18:45;;;;;;;3.47;1.70;;;8.50;96.60;;;;;;4945439;29;20241;-89
2022/05/31 01:27:50;;;;;;;2.00;1.70;;;8.70;96.40;;;;;;4964034;28;20209;-89
2022/05/31 01:30:49;;;;;;;2.53;1.67;;;8.70;96.40;;;;;;4946357;29;20213;-89
2022/05/31 01:33:38;;;;;;;1.70;1.60;;;8.80;96.50;;;;;;4942298;29;20233;-89
2022/05/31 01:36:11;;;;;;;1.70;1.60;;;8.70;95.90;;;;;;4951909;29;20284;-89
2022/05/31 01:38:46;;;;;;;3.60;1.70;;;8.70;95.90;;;;;;4948034;29;20209;-89
2022/05/31 01:41:29;;;;;;;1.83;1.63;;;8.70;95.90;;;;;;4951747;29;20256;-89
2022/05/31 01:46:52;;;;;;;1.67;1.55;;;8.70;96.10;;;;;;4929491;29;20276;-89
2022/05/31 01:49:20;;;;;;;1.88;1.63;;;8.80;96.50;;;;;;4928435;29;20318;-89
2022/05/31 01:54:43;;;;;;;2.10;1.70;;;8.70;96.00;;;;;;4930631;29;20238;-89
2022/05/31 01:57:43;;;;;;;2.60;1.60;;;8.70;96.40;;;;;;4917692;29;20229;-89
2022/05/31 02:00:29;;;;;;;4.20;1.58;;;8.80;96.60;;;;;;4926776;29;20210;-89
2022/05/31 02:03:04;;;;;;;1.73;1.63;;;8.80;96.20;;;;;;4927350;29;20210;-90
2022/05/31 02:06:16;;;;;;;1.42;1.33;;;8.90;95.90;;;;;;4922335;29;20203;-90
2022/05/31 02:09:16;;;;;;;1.38;1.27;;;9.00;95.90;;;;;;4928104;29;20271;-89
2022/05/31 02:11:59;;;;;;;1.70;1.60;;;8.90;95.80;;;;;;4931430;29;20202;-89
2022/05/31 02:15:22;;;;;;;1.95;1.80;;;9.00;95.90;;;;;;4919097;29;20670;-89
2022/05/31 02:23:59;;;;;;;1.50;1.40;;;8.80;95.90;;;;;;4956706;28;20197;-90
2022/05/31 02:26:44;;;;;;;1.70;1.60;;;8.80;95.90;;;;;;4956475;29;20216;-89
2022/05/31 02:36:13;;;;;;;1.77;1.67;;;8.60;95.80;;;;;;4952125;29;20170;-90
2022/05/31 03:19:59;;;;;;;1.70;1.60;;;8.60;95.90;;;;;;4932997;29;20217;-90
2022/05/31 03:36:12;;;;;;;2.38;1.50;;;8.80;95.90;;;;;;4912377;29;20198;-91
2022/05/31 03:51:36;;;;;;;3.10;1.80;;;9.20;95.50;;;;;;4936854;29;20225;-90
2022/05/31 03:58:22;;;;;;;2.70;1.80;;;9.10;95.70;;;;;;4915400;29;20190;-90
2022/05/31 04:07:09;;;;;;;2.28;2.03;;;9.10;95.90;;;;;;4872824;29;20192;-91
2022/05/31 04:09:50;;;;;;;2.58;1.92;;;9.20;95.90;;;;;;4874711;29;20216;-90
2022/05/31 04:12:40;;;;;;;2.33;2.13;;;9.30;96.00;;;;;;4895648;29;20219;-90
2022/05/31 04:18:30;;;;;;;3.00;1.77;;;9.70;96.00;;;;;;4888376;29;20247;-90
2022/05/31 04:24:33;;;;;;;3.10;1.70;;;9.90;94.30;;;;;;4889995;29;20175;-90
2022/05/31 04:37:16;;;;;;;2.42;2.22;;;10.20;92.50;;;;;;4878229;29;20200;-89
2022/05/31 04:40:05;;;;;;;2.22;2.03;;;10.10;92.90;;;;;;4885615;29;20218;-88
2022/05/31 04:48:13;;;;;;;3.20;2.45;;;10.70;92.90;;;;;;5051105;23;20665;-90
2022/05/31 06:19:31;;;;;;;2.58;1.90;;;12.60;80.10;;;;;;4958975;29;20191;-85
2022/05/31 07:50:20;;;;;;;3.42;1.40;;;16.20;42.00;;;;;;4952536;28;20216;-89
2022/05/31 07:56:59;;;;;;;2.30;1.33;;;16.20;39.80;;;;;;4943072;29;20274;-89
2022/05/31 08:19:08;;;;;;;1.20;1.10;;;17.30;32.50;;;;;;4951589;29;20278;-90
2022/05/31 08:21:41;;;;;;;2.17;1.20;;;18.70;29.70;;;;;;4927957;29;20277;-87
2022/05/31 08:24:17;;;;;;;3.03;1.38;;;21.50;23.80;;;;;;4943442;29;20364;-84
2022/05/31 08:26:47;;;;;;;2.47;1.33;;;24.40;17.80;;;;;;4960744;28;20199;-84
2022/05/31 08:29:24;;;;;;;2.20;1.58;;;25.80;14.60;;;;;;4970556;28;20212;-82
2022/05/31 08:32:05;;;;;;;1.52;1.42;;;26.10;14.70;;;;;;4960151;28;20612;-83
2022/05/31 08:34:37;;;;;;;1.58;1.48;;;27.10;13.10;;;;;;4958037;28;20204;-82
2022/05/31 08:37:05;;;;;;;1.55;1.38;;;26.30;13.50;;;;;;4959572;28;20204;-82
2022/05/31 08:39:47;;;;;;;2.22;1.50;;;25.60;14.50;;;;;;4960652;28;20201;-82
2022/05/31 08:42:17;;;;;;;2.97;1.70;;;24.40;16.30;;;;;;4952214;28;20239;-82
2022/05/31 08:44:54;;;;;;;1.50;1.40;;;25.80;14.50;;;;;;4950793;29;20221;-82
2022/05/31 08:47:31;;;;;;;1.70;1.60;;;26.90;13.20;;;;;;4948368;29;20208;-83
2022/05/31 08:56:57;;;;;;;2.70;1.88;;;29.20;9.80;;;;;;4932388;29;20568;-83
2022/05/31 08:59:36;;;;;;;1.73;1.60;;;29.20;11.50;;;;;;4939109;29;20217;-83
2022/05/31 09:02:17;;;;;;;1.90;1.80;;;30.40;7.20;;;;;;4938273;29;20221;-83
2022/05/31 09:04:48;;;;;;;2.10;1.90;;;29.60;9.60;;;;;;4926807;29;20209;-83
2022/05/31 09:07:39;;;;;;;2.30;2.05;;;30.10;7.80;;;;;;4938969;29;20288;-84
2022/05/31 09:10:20;;;;;;;2.28;2.00;;;30.70;7.40;;;;;;4938341;29;20208;-84
2022/05/31 09:12:58;;;;;;;1.92;1.83;;;29.80;6.90;;;;;;4940271;29;20216;-84
2022/05/31 09:15:34;;;;;;;2.00;1.90;;;29.90;7.00;;;;;;4939493;29;20228;-83
2022/05/31 09:18:23;;;;;;;2.70;1.90;;;30.80;7.10;;;;;;4940489;29;20708;-83
2022/05/31 09:21:17;;;;;;;2.50;1.90;;;30.10;7.10;;;;;;4946073;29;20351;-84
2022/05/31 09:24:19;;;;;;;3.40;2.03;;;28.40;8.40;;;;;;4930691;29;20197;-84
2022/05/31 09:27:00;;;;;;;2.80;1.90;;;30.10;6.80;;;;;;4938866;29;20193;-84
2022/05/31 09:29:33;;;;;;;3.33;2.35;;;29.40;6.70;;;;;;4939713;29;20212;-84
2022/05/31 09:32:20;;;;;;;3.28;2.03;;;30.90;7.00;;;;;;4937260;29;20212;-84
2022/05/31 09:35:13;;;;;;;2.50;2.15;;;29.90;7.00;;;;;;4939559;29;20209;-84
2022/05/31 09:37:59;;;;;;;3.78;2.03;;;30.50;6.70;;;;;;4941504;29;20208;-84
2022/05/31 09:40:43;;;;;;;4.30;2.35;;;30.20;7.10;;;;;;4945570;29;20206;-85
2022/05/31 09:43:20;;;;;;;2.40;2.20;;;31.20;5.90;;;;;;4947386;29;20689;-84
2022/05/31 09:45:54;;;;;;;2.80;2.50;;;32.60;4.90;;;;;;4945305;29;20217;-86
2022/05/31 09:48:29;;;;;;;3.00;2.35;;;33.10;3.20;;;;;;4944938;29;20767;-83
2022/05/31 09:51:01;;;;;;;3.20;2.65;;;33.20;4.70;;;;;;4945768;29;20197;-83
2022/05/31 09:59:10;;;;;;;3.63;2.20;;;30.80;6.40;;;;;;4947654;29;20241;-84
2022/05/31 10:01:44;;;;;;;2.42;2.22;;;29.80;8.40;;;;;;4944449;29;20214;-83
2022/05/31 10:04:13;;;;;;;2.97;2.58;;;30.90;6.10;;;;;;4957052;29;20205;-84
2022/05/31 10:06:55;;;;;;;2.55;2.28;;;31.60;5.30;;;;;;4946435;29;20206;-84
2022/05/31 10:09:35;;;;;;;3.67;2.40;;;31.90;6.00;;;;;;4955892;29;20201;-84
2022/05/31 10:12:17;;;;;;;2.88;2.20;;;31.80;5.70;;;;;;4946983;29;20224;-84
2022/05/31 10:14:46;;;;;;;2.50;2.30;;;31.70;6.50;;;;;;4946356;29;20219;-85
2022/05/31 10:17:35;;;;;;;2.45;2.25;;;31.80;5.10;;;;;;4958540;29;20211;-86
2022/05/31 10:20:16;;;;;;;2.40;2.20;;;32.20;5.00;;;;;;4944379;29;20212;-84
2022/05/31 10:22:54;;;;;;;2.30;2.10;;;30.20;6.40;;;;;;4944341;29;20228;-84
2022/05/31 10:25:23;;;;;;;4.45;2.65;;;31.20;7.90;;;;;;4940355;29;20209;-84
2022/05/31 10:27:58;;;;;;;2.75;2.10;;;31.20;6.50;;;;;;4947802;29;20209;-84
2022/05/31 10:30:31;;;;;;;3.22;2.28;;;30.60;6.00;;;;;;4944951;29;20217;-84
2022/05/31 10:33:08;;;;;;;2.60;2.40;;;29.90;7.00;;;;;;4950644;29;20252;-84
2022/05/31 10:35:38;;;;;;;2.58;2.10;;;30.10;7.10;;;;;;4947912;29;20248;-84
2022/05/31 10:38:30;;;;;;;3.63;1.90;;;29.60;9.60;;;;;;4941081;29;20628;-85
2022/05/31 10:41:01;;;;;;;5.05;2.10;;;29.20;10.40;;;;;;4931161;29;20234;-84
2022/05/31 10:43:36;;;;;;;2.88;2.05;;;29.70;8.30;;;;;;4936817;29;20269;-84
2022/05/31 10:46:08;;;;;;;4.13;2.10;;;30.20;8.50;;;;;;4902820;29;1095623;-83
2022/05/31 10:48:40;;;;;;;2.72;2.03;;;30.90;9.60;;;;;;4942472;29;20212;-84
2022/05/31 10:51:14;;;;;;;2.20;2.00;;;29.50;10.20;;;;;;4931420;29;20245;-83
2022/05/31 10:53:47;;;;;;;3.38;1.90;;;28.90;10.70;;;;;;4940909;29;20220;-86
2022/05/31 10:56:17;;;;;;;2.05;1.88;;;29.90;9.50;;;;;;4940007;29;20210;-83
2022/05/31 10:58:57;;;;;;;2.10;1.80;;;29.90;8.10;;;;;;4939856;29;20213;-83
2022/05/31 11:02:04;;;;;;;2.20;1.80;;;30.50;9.60;;;;;;4933423;29;20212;-85
2022/05/31 11:04:56;;;;;;;5.03;2.00;;;30.00;8.30;;;;;;4927429;29;20205;-83
2022/05/31 11:07:36;;;;;;;2.28;2.05;;;27.60;12.30;;;;;;4940857;29;20205;-83
2022/05/31 11:13:41;;;;;;;2.47;1.60;;;26.20;14.10;;;;;;4941121;29;20216;-81
2022/05/31 11:16:37;;;;;;;2.47;1.48;;;25.90;14.60;;;;;;4940863;29;20205;-83
2022/05/31 11:19:34;;;;;;;4.63;1.90;;;25.60;14.40;;;;;;4942782;29;20553;-85
2022/05/31 11:22:26;;;;;;;2.33;1.80;;;24.60;14.60;;;;;;4931915;29;20205;-85
2022/05/31 11:25:19;;;;;;;1.98;1.60;;;24.70;14.90;;;;;;4945940;29;20233;-85
2022/05/31 11:27:57;;;;;;;2.58;1.58;;;25.00;14.20;;;;;;4946412;29;20269;-85
2022/05/31 11:30:37;;;;;;;2.13;1.80;;;24.90;14.10;;;;;;4951244;29;20265;-87
2022/05/31 11:33:23;;;;;;;2.55;1.60;;;24.40;13.80;;;;;;4952275;29;20210;-87
2022/05/31 11:36:07;;;;;;;2.65;1.70;;;24.50;15.40;;;;;;4960684;29;20293;-88
2022/05/31 11:38:44;;;;;;;6.28;1.80;;;24.80;14.10;;;;;;4954754;29;20219;-89
2022/05/31 11:41:18;;;;;;;3.70;1.75;;;24.40;13.80;;;;;;4954468;29;20225;-87
2022/05/31 11:44:33;;;;;;;1.70;1.60;;;24.30;15.40;;;;;;4947825;29;20233;-88
2022/05/31 11:47:07;;;;;;;2.65;1.83;;;24.10;17.70;;;;;;4958338;29;20197;-88
2022/05/31 11:49:47;;;;;;;3.05;1.80;;;24.20;15.00;;;;;;4948842;29;20274;-88
2022/05/31 11:52:39;;;;;;;2.55;1.90;;;24.70;14.00;;;;;;4944555;29;20206;-90
2022/05/31 11:55:29;;;;;;;2.50;1.63;;;24.90;16.30;;;;;;4947711;29;20269;-89
2022/05/31 11:58:18;;;;;;;6.00;1.90;;;25.10;15.30;;;;;;4949605;29;20217;-89
2022/05/31 12:00:59;;;;;;;4.93;2.00;;;25.40;14.30;;;;;;4943115;29;20216;-89
2022/05/31 12:03:34;;;;;;;3.15;1.70;;;25.70;14.50;;;;;;4943290;29;20233;-86
2022/05/31 12:06:28;;;;;;;4.82;1.80;;;26.00;14.60;;;;;;4936919;29;20205;-87
2022/05/31 12:09:07;;;;;;;4.43;1.70;;;26.10;14.70;;;;;;4935933;29;20202;-88
2022/05/31 12:11:38;;;;;;;3.63;1.70;;;25.90;14.60;;;;;;4939776;29;20235;-86
2022/05/31 12:14:13;;;;;;;3.65;1.90;;;25.70;14.60;;;;;;4937485;29;20317;-85
2022/05/31 12:16:43;;;;;;;4.10;1.75;;;25.80;14.30;;;;;;4934478;29;20198;-87
2022/05/31 12:19:46;;;;;;;2.92;1.80;;;26.00;14.60;;;;;;4935850;29;20205;-85
2022/05/31 12:22:19;;;;;;;2.75;1.90;;;26.10;14.70;;;;;;4936812;29;21907;-86
2022/05/31 12:24:57;;;;;;;3.08;1.73;;;25.90;15.50;;;;;;4945242;29;20201;-85
2022/05/31 12:27:38;;;;;;;7.78;1.85;;;25.90;14.40;;;;;;4947840;29;20220;-86
2022/05/31 12:30:07;;;;;;;3.92;1.75;;;25.40;14.30;;;;;;4935935;29;20555;-87
2022/05/31 12:32:45;;;;;;;3.08;1.60;;;25.00;14.20;;;;;;4949387;29;20210;-87
2022/05/31 12:35:49;;;;;;;3.33;2.00;;;24.50;16.10;;;;;;4946965;29;20201;-87
2022/05/31 12:38:17;;;;;;;3.33;1.70;;;24.30;16.00;;;;;;4881296;29;20212;-88
2022/05/31 12:40:59;;;;;;;3.22;1.50;;;24.50;15.50;;;;;;4871865;29;20225;-88
2022/05/31 12:43:55;;;;;;;2.72;1.58;;;24.40;15.00;;;;;;4889477;29;20236;-88
2022/05/31 12:46:38;;;;;;;4.28;1.95;;;24.40;15.60;;;;;;4887958;29;20216;-87
2022/05/31 12:49:10;;;;;;;3.08;1.88;;;24.50;16.30;;;;;;4879562;29;20284;-87
2022/05/31 12:51:41;;;;;;;2.67;1.83;;;24.50;15.30;;;;;;4889558;29;20207;-87
2022/05/31 12:54:45;;;;;;;3.58;1.70;;;24.70;14.80;;;;;;4881859;29;20242;-87
2022/05/31 13:00:28;;;;;;;3.38;1.92;;;25.00;14.20;;;;;;4873322;29;20563;-88
2022/05/31 13:02:56;;;;;;;4.88;1.75;;;24.90;14.10;;;;;;4861792;29;20227;-84
2022/05/31 13:05:39;;;;;;;3.17;1.50;;;24.70;14.00;;;;;;4879318;29;20239;-87
2022/05/31 13:08:24;;;;;;;2.05;1.60;;;24.70;14.90;;;;;;4880517;29;20228;-84
2022/05/31 13:22:07;;;;;;;2.45;1.70;;;24.80;15.40;;;;;;4944997;29;20209;-85
2022/05/31 13:25:01;;;;;;;2.05;1.77;;;24.60;14.70;;;;;;4942740;29;20233;-86
2022/05/31 13:27:35;;;;;;;3.85;1.77;;;24.80;14.10;;;;;;4946894;29;20602;-86
2022/05/31 13:30:06;;;;;;;3.58;1.88;;;24.60;13.90;;;;;;4951352;29;20269;-85
2022/05/31 13:32:48;;;;;;;3.75;1.60;;;24.40;15.40;;;;;;4957161;29;20206;-85
2022/05/31 13:35:17;;;;;;;2.67;1.92;;;24.30;15.80;;;;;;4946901;29;20293;-85
2022/05/31 13:38:02;;;;;;;4.10;1.90;;;24.60;16.90;;;;;;4956008;29;20209;-85
2022/05/31 13:40:33;;;;;;;4.75;1.90;;;24.60;16.40;;;;;;4955562;29;20206;-85
2022/05/31 13:43:25;;;;;;;4.97;1.83;;;24.40;15.90;;;;;;4957199;29;20224;-85
2022/05/31 13:45:56;;;;;;;3.20;1.95;;;24.20;17.50;;;;;;4957139;29;20228;-85
2022/05/31 13:48:27;;;;;;;5.97;1.85;;;23.90;16.70;;;;;;4958301;29;20302;-85
2022/05/31 13:50:55;;;;;;;5.55;1.80;;;23.60;16.50;;;;;;4957986;29;20395;-87
2022/05/31 13:53:38;;;;;;;3.30;1.75;;;23.20;17.30;;;;;;4957124;29;20730;-87
2022/05/31 13:56:10;;;;;;;3.10;1.70;;;22.90;16.90;;;;;;4949307;29;20221;-87
2022/05/31 13:59:05;;;;;;;4.15;1.73;;;22.60;17.20;;;;;;4957862;29;20289;-90
2022/05/31 14:07:50;;;;;;;5.20;2.00;;;21.90;18.90;;;;;;4943645;29;20206;-87
2022/05/31 14:20:53;;;;;;;5.82;2.40;;;21.40;21.40;;;;;;4866042;29;20216;-90
2022/05/31 14:29:41;;;;;;;5.38;2.30;;;21.50;21.50;;;;;;4954460;29;20213;-86
2022/05/31 14:45:03;;;;;;;5.10;2.05;;;20.70;25.50;;;;;;4858641;29;20254;-86
2022/05/31 14:54:49;;;;;;;3.17;1.90;;;20.20;26.50;;;;;;4854355;29;20229;-86
2022/05/31 15:08:33;;;;;;;2.22;1.90;;;20.00;29.10;;;;;;4825193;29;20222;-86
2022/05/31 15:21:26;;;;;;;5.07;2.20;;;20.50;26.80;;;;;;4826023;29;20197;-85
2022/05/31 15:48:01;;;;;;;13.60;10.20;;;20.50;28.30;;;;;;4891412;29;20221;-87
2022/05/31 15:53:53;;;;;;;2.50;2.30;;;20.60;28.70;;;;;;4887550;29;20243;-88
2022/05/31 16:45:19;;;;;;;2.67;1.60;;;21.10;22.40;;;;;;4949865;28;20286;-87
2022/05/31 16:47:48;;;;;;;4.93;1.55;;;20.90;23.50;;;;;;4953913;29;20201;-91
2022/05/31 16:50:31;;;;;;;2.42;1.52;;;21.10;25.00;;;;;;4987244;28;20214;-87
2022/05/31 16:53:17;;;;;;;3.20;1.58;;;21.00;25.40;;;;;;4948548;29;20195;-87
2022/05/31 16:55:43;;;;;;;1.67;1.48;;;20.90;24.20;;;;;;4951868;29;20217;-88
2022/05/31 16:58:58;;;;;;;3.17;1.60;;;20.80;25.60;;;;;;4949232;29;20213;-88
2022/05/31 17:01:45;;;;;;;3.38;1.50;;;20.60;24.30;;;;;;4946503;29;20559;-89
2022/05/31 17:04:31;;;;;;;4.78;2.17;;;20.30;25.00;;;;;;4962257;29;20628;-90
2022/05/31 17:22:55;;;;;;;1.90;1.35;;;19.30;27.70;;;;;;4916218;29;20186;-89
2022/05/31 18:55:21;;;;;;;3.53;2.78;;;15.30;93.00;;;;;;4916969;29;20210;-86
2022/05/31 18:58:08;;;;;;;5.78;3.10;;;15.20;93.30;;;;;;4943549;29;20212;-86
2022/05/31 19:44:58;;;;;;;2.42;2.22;;;14.90;93.70;;;;;;4805878;29;20239;-86
2022/05/31 19:47:48;;;;;;;6.10;2.60;;;15.00;93.50;;;;;;4806922;30;20215;-85
2022/05/31 19:57:46;;;;;;;3.35;2.42;;;14.90;94.00;;;;;;4806598;29;20210;-86
2022/05/31 20:35:12;;;;;;;5.03;2.50;;;14.90;94.70;;;;;;4954908;29;20193;-85
